createdAt,value
2016-02-17T00:00:57.749Z,6.44
2016-02-17T00:01:57.751Z,6.41
2016-02-17T00:02:57.769Z,6.42
2016-02-17T00:03:57.787Z,6.45
2016-02-17T00:04:57.806Z,6.49
2016-02-17T00:05:57.825Z,6.49
2016-02-17T00:06:57.843Z,6.49
2016-02-17T00:07:57.846Z,6.36
2016-02-17T00:08:57.863Z,6.49
2016-02-17T00:09:57.882Z,6.3
2016-02-17T00:10:57.900Z,6.35
2016-02-17T00:11:57.919Z,6.33
2016-02-17T00:12:57.937Z,6.33
2016-02-17T00:13:57.955Z,6.33
2016-02-17T00:14:57.802Z,6.36
2016-02-17T00:15:57.976Z,6.28
2016-02-17T00:16:57.995Z,6.35
2016-02-17T00:17:57.997Z,6.39
2016-02-17T00:18:58.015Z,6.28
2016-02-17T00:19:58.050Z,6.41
2016-02-17T00:20:58.052Z,6.33
2016-02-17T00:21:58.070Z,6.31
2016-02-17T00:22:58.089Z,6.28
2016-02-17T00:23:58.106Z,6.31
2016-02-17T00:24:58.125Z,6.36
2016-02-17T00:25:58.128Z,6.31
2016-02-17T00:26:58.147Z,6.39
2016-02-17T00:27:58.165Z,6.41
2016-02-17T00:28:58.167Z,6.3
2016-02-17T00:29:58.202Z,6.38
2016-02-17T00:30:58.208Z,6.3
2016-02-17T00:31:58.227Z,6.41
2016-02-17T00:32:58.246Z,6.36
2016-02-17T00:33:58.264Z,6.31
2016-02-17T00:34:58.298Z,6.36
2016-02-17T00:35:58.285Z,6.39
2016-02-17T00:36:58.304Z,6.33
2016-02-17T00:37:58.321Z,6.38
2016-02-17T00:38:58.324Z,6.36
2016-02-17T00:39:58.342Z,6.36
2016-02-17T00:40:58.361Z,6.33
2016-02-17T00:41:58.379Z,6.35
2016-02-17T00:42:58.398Z,6.36
2016-02-17T00:43:58.431Z,6.38
2016-02-17T00:44:58.418Z,6.35
2016-02-17T00:45:58.437Z,6.36
2016-02-17T00:46:58.471Z,6.35
2016-02-17T00:47:58.489Z,6.33
2016-02-17T00:48:58.492Z,6.33
2016-02-17T00:49:58.495Z,6.31
2016-02-17T00:50:58.528Z,6.31
2016-02-17T00:51:58.531Z,6.31
2016-02-17T00:52:58.549Z,6.33
2016-02-17T00:53:58.568Z,6.31
2016-02-17T00:54:58.570Z,6.39
2016-02-17T00:55:58.667Z,6.36
2016-02-17T00:56:58.607Z,6.36
2016-02-17T00:57:58.625Z,6.31
2016-02-17T00:58:58.644Z,6.33
2016-02-17T00:59:58.661Z,6.31
2016-02-17T01:00:58.664Z,6.36
2016-02-17T01:01:58.699Z,6.35
2016-02-17T01:02:58.717Z,6.3
2016-02-17T01:03:58.735Z,6.3
2016-02-17T01:04:58.738Z,6.28
2016-02-17T01:05:58.756Z,6.27
2016-02-17T01:06:58.775Z,6.22
2016-02-17T01:07:58.777Z,6.27
2016-02-17T01:08:58.796Z,6.31
2016-02-17T01:09:58.813Z,6.24
2016-02-17T01:10:58.832Z,6.24
2016-02-17T01:11:58.851Z,6.27
2016-02-17T01:12:58.853Z,6.26
2016-02-17T01:13:58.871Z,6.22
2016-02-17T01:14:58.906Z,6.27
2016-02-17T01:15:58.908Z,6.12
2016-02-17T01:16:58.942Z,6.17
2016-02-17T01:17:58.945Z,6.17
2016-02-17T01:18:58.948Z,6.17
2016-02-17T01:19:58.965Z,6.17
2016-02-17T01:20:58.984Z,6.12
2016-02-17T01:21:59.017Z,6.12
2016-02-17T01:22:59.021Z,6.14
2016-02-17T01:23:59.039Z,6.16
2016-02-17T01:24:59.058Z,6.12
2016-02-17T01:25:59.061Z,6.2
2016-02-17T01:26:59.094Z,6.11
2016-02-17T01:27:59.112Z,6.09
2016-02-17T01:28:59.115Z,6.07
2016-02-17T01:29:59.117Z,6.02
2016-02-17T01:30:59.136Z,6.05
2016-02-17T01:31:59.155Z,6.04
2016-02-17T01:32:59.172Z,6.08
2016-02-17T01:33:59.191Z,6.01
2016-02-17T01:34:59.193Z,6.05
2016-02-17T01:35:59.213Z,5.99
2016-02-17T01:36:59.230Z,6.09
2016-02-17T01:37:59.249Z,6.02
2016-02-17T01:38:59.266Z,5.99
2016-02-17T01:39:59.285Z,6.02
2016-02-17T01:40:59.288Z,5.97
2016-02-17T01:41:59.306Z,6.11
2016-02-17T01:42:59.324Z,6.05
2016-02-17T01:43:59.343Z,6.02
2016-02-17T01:44:59.362Z,5.98
2016-02-17T01:45:59.364Z,6.02
2016-02-17T01:46:59.382Z,6.02
2016-02-17T01:47:59.401Z,6.01
2016-02-17T01:48:59.418Z,6.04
2016-02-17T01:49:59.437Z,5.98
2016-02-17T01:50:59.455Z,6.05
2016-02-17T01:51:59.473Z,5.94
2016-02-17T01:52:59.476Z,5.9
2016-02-17T01:53:59.479Z,5.94
2016-02-17T01:54:59.513Z,5.94
2016-02-17T01:55:59.359Z,5.94
2016-02-17T01:56:59.550Z,5.94
2016-02-17T01:57:59.553Z,5.91
2016-02-17T01:58:59.570Z,5.91
2016-02-17T01:59:59.589Z,5.93
2016-02-17T02:00:59.608Z,5.93
2016-02-17T02:01:59.625Z,5.91
2016-02-17T02:02:59.628Z,5.94
2016-02-17T02:03:59.646Z,5.87
2016-02-17T02:04:59.665Z,5.87
2016-02-17T02:05:59.668Z,5.9
2016-02-17T02:06:59.685Z,5.87
2016-02-17T02:07:59.705Z,5.87
2016-02-17T02:08:59.722Z,5.94
2016-02-17T02:09:59.741Z,5.93
2016-02-17T02:10:59.760Z,5.84
2016-02-17T02:11:59.777Z,5.9
2016-02-17T02:12:59.796Z,5.89
2016-02-17T02:13:59.799Z,5.93
2016-02-17T02:14:59.817Z,5.87
2016-02-17T02:15:59.820Z,5.84
2016-02-17T02:16:59.838Z,5.86
2016-02-17T02:17:59.857Z,5.93
2016-02-17T02:18:59.874Z,5.87
2016-02-17T02:19:59.892Z,5.9
2016-02-17T02:20:59.895Z,5.91
2016-02-17T02:21:59.914Z,5.87
2016-02-17T02:22:59.932Z,5.86
2016-02-17T02:23:59.966Z,5.9
2016-02-17T02:24:59.969Z,5.8
2016-02-17T02:25:59.988Z,5.82
2016-02-17T02:26:59.991Z,5.86
2016-02-17T02:28:00.009Z,5.82
2016-02-17T02:29:00.012Z,5.87
2016-02-17T02:30:00.046Z,5.79
2016-02-17T02:31:00.048Z,5.79
2016-02-17T02:32:00.067Z,5.8
2016-02-17T02:33:00.100Z,5.76
2016-02-17T02:34:00.104Z,5.79
2016-02-17T02:35:00.122Z,5.84
2016-02-17T02:36:00.156Z,5.8
2016-02-17T02:37:00.142Z,5.79
2016-02-17T02:38:00.161Z,5.79
2016-02-17T02:39:00.179Z,5.82
2016-02-17T02:40:00.197Z,5.79
2016-02-17T02:41:00.200Z,5.8
2016-02-17T02:42:00.219Z,5.8
2016-02-17T02:43:00.237Z,5.8
2016-02-17T02:44:00.255Z,5.72
2016-02-17T02:45:00.274Z,5.79
2016-02-17T02:46:00.292Z,5.76
2016-02-17T02:47:00.311Z,5.73
2016-02-17T02:48:00.313Z,5.76
2016-02-17T02:49:00.347Z,5.68
2016-02-17T02:50:00.349Z,5.71
2016-02-17T02:51:00.368Z,5.73
2016-02-17T02:52:00.386Z,5.71
2016-02-17T02:53:00.373Z,5.65
2016-02-17T02:54:00.407Z,5.72
2016-02-17T02:55:00.426Z,5.71
2016-02-17T02:56:00.444Z,5.59
2016-02-17T02:57:00.447Z,5.65
2016-02-17T02:58:00.449Z,5.65
2016-02-17T02:59:00.483Z,5.76
2016-02-17T03:00:00.501Z,5.75
2016-02-17T03:01:00.504Z,5.73
2016-02-17T03:02:00.569Z,5.71
2016-02-17T03:03:00.541Z,5.64
2016-02-17T03:04:00.543Z,5.71
2016-02-17T03:05:00.562Z,5.64
2016-02-17T03:06:00.595Z,5.64
2016-02-17T03:07:00.598Z,5.61
2016-02-17T03:08:00.632Z,5.56
2016-02-17T03:09:00.619Z,5.57
2016-02-17T03:10:00.637Z,5.64
2016-02-17T03:11:00.656Z,5.56
2016-02-17T03:12:00.690Z,5.57
2016-02-17T03:13:00.692Z,5.62
2016-02-17T03:14:00.695Z,5.62
2016-02-17T03:15:00.713Z,5.62
2016-02-17T03:16:00.733Z,5.51
2016-02-17T03:17:00.781Z,5.57
2016-02-17T03:18:00.769Z,5.5
2016-02-17T03:19:00.771Z,5.5
2016-02-17T03:20:00.789Z,5.48
2016-02-17T03:21:00.824Z,5.51
2016-02-17T03:22:00.810Z,5.54
2016-02-17T03:23:00.844Z,5.59
2016-02-17T03:24:00.847Z,5.57
2016-02-17T03:25:00.882Z,5.53
2016-02-17T03:26:00.884Z,5.51
2016-02-17T03:27:00.902Z,5.54
2016-02-17T03:28:00.905Z,5.51
2016-02-17T03:29:00.938Z,5.43
2016-02-17T03:30:00.941Z,5.51
2016-02-17T03:31:00.959Z,5.47
2016-02-17T03:32:00.994Z,5.48
2016-02-17T03:33:00.996Z,5.46
2016-02-17T03:34:00.999Z,5.48
2016-02-17T03:35:01.034Z,5.43
2016-02-17T03:36:01.036Z,5.5
2016-02-17T03:37:01.054Z,5.5
2016-02-17T03:38:01.056Z,5.47
2016-02-17T03:39:01.090Z,5.46
2016-02-17T03:40:01.093Z,5.39
2016-02-17T03:41:01.112Z,5.41
2016-02-17T03:42:01.114Z,5.48
2016-02-17T03:43:01.133Z,5.43
2016-02-17T03:44:01.150Z,5.39
2016-02-17T03:45:01.153Z,5.39
2016-02-17T03:46:01.188Z,5.38
2016-02-17T03:47:01.222Z,5.35
2016-02-17T03:48:01.224Z,5.44
2016-02-17T03:49:01.227Z,5.41
2016-02-17T03:50:01.245Z,5.41
2016-02-17T03:51:01.247Z,5.44
2016-02-17T03:52:01.250Z,5.39
2016-02-17T03:53:01.300Z,5.38
2016-02-17T03:54:01.303Z,5.41
2016-02-17T03:55:01.305Z,5.36
2016-02-17T03:56:01.324Z,5.33
2016-02-17T03:57:01.327Z,5.41
2016-02-17T03:58:01.360Z,5.33
2016-02-17T03:59:01.363Z,5.28
2016-02-17T04:00:01.381Z,5.28
2016-02-17T04:01:01.385Z,5.35
2016-02-17T04:02:01.434Z,5.35
2016-02-17T04:03:01.437Z,5.3
2016-02-17T04:04:01.440Z,5.3
2016-02-17T04:05:01.457Z,5.41
2016-02-17T04:06:01.492Z,5.41
2016-02-17T04:07:01.478Z,5.38
2016-02-17T04:08:01.512Z,5.36
2016-02-17T04:09:01.515Z,5.29
2016-02-17T04:10:01.534Z,5.26
2016-02-17T04:11:01.551Z,5.29
2016-02-17T04:12:01.570Z,5.29
2016-02-17T04:13:01.572Z,5.26
2016-02-17T04:14:01.591Z,5.26
2016-02-17T04:15:01.609Z,5.21
2016-02-17T04:16:01.628Z,5.25
2016-02-17T04:17:01.646Z,5.21
2016-02-17T04:18:01.492Z,5.18
2016-02-17T04:19:01.667Z,5.25
2016-02-17T04:20:01.700Z,5.21
2016-02-17T04:21:01.688Z,5.15
2016-02-17T04:22:01.706Z,5.23
2016-02-17T04:23:01.709Z,5.18
2016-02-17T04:24:01.758Z,5.28
2016-02-17T04:25:01.761Z,5.15
2016-02-17T04:26:01.780Z,5.2
2016-02-17T04:27:01.782Z,5.18
2016-02-17T04:28:01.816Z,5.25
2016-02-17T04:29:01.803Z,5.18
2016-02-17T04:30:01.821Z,5.2
2016-02-17T04:31:01.840Z,5.26
2016-02-17T04:32:01.843Z,5.23
2016-02-17T04:33:01.861Z,5.14
2016-02-17T04:34:01.879Z,5.14
2016-02-17T04:35:01.898Z,5.11
2016-02-17T04:36:01.915Z,5.11
2016-02-17T04:37:01.934Z,5.1
2016-02-17T04:38:01.953Z,5.08
2016-02-17T04:39:01.971Z,5.07
2016-02-17T04:40:01.973Z,5.08
2016-02-17T04:41:01.992Z,5.08
2016-02-17T04:42:02.009Z,5.1
2016-02-17T04:43:02.028Z,5.04
2016-02-17T04:44:02.015Z,5.05
2016-02-17T04:45:02.080Z,4.99
2016-02-17T04:46:02.068Z,4.99
2016-02-17T04:47:02.086Z,5
2016-02-17T04:48:02.089Z,5.04
2016-02-17T04:49:02.108Z,5
2016-02-17T04:50:02.110Z,4.99
2016-02-17T04:51:02.144Z,4.92
2016-02-17T04:52:02.131Z,5.04
2016-02-17T04:53:02.164Z,4.96
2016-02-17T04:54:02.183Z,4.93
2016-02-17T04:55:02.217Z,4.97
2016-02-17T04:56:02.204Z,4.89
2016-02-17T04:57:02.222Z,4.87
2016-02-17T04:58:02.240Z,4.92
2016-02-17T04:59:02.259Z,4.82
2016-02-17T05:00:02.246Z,4.89
2016-02-17T05:01:02.280Z,4.9
2016-02-17T05:02:02.283Z,4.89
2016-02-17T05:03:02.301Z,4.84
2016-02-17T05:04:02.335Z,4.8
2016-02-17T05:05:02.337Z,4.82
2016-02-17T05:06:02.340Z,4.71
2016-02-17T05:07:02.374Z,4.78
2016-02-17T05:08:02.377Z,4.8
2016-02-17T05:09:02.412Z,4.78
2016-02-17T05:10:02.242Z,4.8
2016-02-17T05:11:02.432Z,4.84
2016-02-17T05:12:02.434Z,4.63
2016-02-17T05:13:02.453Z,4.7
2016-02-17T05:14:02.455Z,4.71
2016-02-17T05:15:02.490Z,4.75
2016-02-17T05:16:02.492Z,4.74
2016-02-17T05:17:02.526Z,4.73
2016-02-17T05:18:02.514Z,4.7
2016-02-17T05:19:02.547Z,4.73
2016-02-17T05:20:02.550Z,4.62
2016-02-17T05:21:02.552Z,4.6
2016-02-17T05:22:02.586Z,4.7
2016-02-17T05:23:02.589Z,4.56
2016-02-17T05:24:02.608Z,4.74
2016-02-17T05:25:02.626Z,4.67
2016-02-17T05:26:02.644Z,4.6
2016-02-17T05:27:02.647Z,4.59
2016-02-17T05:28:02.665Z,4.68
2016-02-17T05:29:02.683Z,4.6
2016-02-17T05:30:02.718Z,4.59
2016-02-17T05:31:02.705Z,4.59
2016-02-17T05:32:02.738Z,4.66
2016-02-17T05:33:02.741Z,4.58
2016-02-17T05:34:02.759Z,4.6
2016-02-17T05:35:02.762Z,4.58
2016-02-17T05:36:02.780Z,4.56
2016-02-17T05:37:02.783Z,4.71
2016-02-17T05:38:02.818Z,4.56
2016-02-17T05:39:02.820Z,4.56
2016-02-17T05:40:02.838Z,4.74
2016-02-17T05:41:02.840Z,4.62
2016-02-17T05:42:02.875Z,4.67
2016-02-17T05:43:02.877Z,4.55
2016-02-17T05:44:02.896Z,4.58
2016-02-17T05:45:02.898Z,4.58
2016-02-17T05:46:02.932Z,4.66
2016-02-17T05:47:02.935Z,4.67
2016-02-17T05:48:02.953Z,4.58
2016-02-17T05:49:02.956Z,4.59
2016-02-17T05:50:02.974Z,4.66
2016-02-17T05:51:02.992Z,4.58
2016-02-17T05:52:03.011Z,4.58
2016-02-17T05:53:03.014Z,4.67
2016-02-17T05:54:03.033Z,4.62
2016-02-17T05:55:03.066Z,4.68
2016-02-17T05:56:03.069Z,4.53
2016-02-17T05:57:03.102Z,4.59
2016-02-17T05:58:03.089Z,4.67
2016-02-17T05:59:03.123Z,4.59
2016-02-17T06:00:03.111Z,4.73
2016-02-17T06:01:03.145Z,4.66
2016-02-17T06:02:03.147Z,4.58
2016-02-17T06:03:03.181Z,4.56
2016-02-17T06:04:03.184Z,4.59
2016-02-17T06:05:03.187Z,4.56
2016-02-17T06:06:03.204Z,4.58
2016-02-17T06:07:03.224Z,4.58
2016-02-17T06:08:03.226Z,4.56
2016-02-17T06:09:03.244Z,4.73
2016-02-17T06:10:03.262Z,4.56
2016-02-17T06:11:03.281Z,4.67
2016-02-17T06:12:03.299Z,4.58
2016-02-17T06:13:03.301Z,4.56
2016-02-17T06:14:03.321Z,4.56
2016-02-17T06:15:03.339Z,4.6
2016-02-17T06:16:03.341Z,4.53
2016-02-17T06:17:03.359Z,4.62
2016-02-17T06:18:03.378Z,4.58
2016-02-17T06:19:03.396Z,4.59
2016-02-17T06:20:03.415Z,4.58
2016-02-17T06:21:03.433Z,4.53
2016-02-17T06:22:03.419Z,4.59
2016-02-17T06:23:03.298Z,4.6
2016-02-17T06:24:03.457Z,4.52
2016-02-17T06:25:03.475Z,4.52
2016-02-17T06:26:03.494Z,4.55
2016-02-17T06:27:03.355Z,4.55
2016-02-17T06:28:03.530Z,4.55
2016-02-17T06:29:03.532Z,4.52
2016-02-17T06:30:03.535Z,4.52
2016-02-17T06:31:03.569Z,4.44
2016-02-17T06:32:03.572Z,4.5
2016-02-17T06:33:03.575Z,4.5
2016-02-17T06:34:02.874Z,4.49
2016-02-17T06:35:03.611Z,4.44
2016-02-17T06:36:03.629Z,4.45
2016-02-17T06:37:03.648Z,4.48
2016-02-17T06:38:03.665Z,4.49
2016-02-17T06:39:03.700Z,4.45
2016-02-17T06:40:03.672Z,4.45
2016-02-17T06:41:03.705Z,4.45
2016-02-17T06:42:03.708Z,4.45
2016-02-17T06:43:03.726Z,4.48
2016-02-17T06:44:03.745Z,4.53
2016-02-17T06:45:03.762Z,4.5
2016-02-17T06:46:03.765Z,4.44
2016-02-17T06:47:03.785Z,4.42
2016-02-17T06:48:03.803Z,4.5
2016-02-17T06:49:03.806Z,4.41
2016-02-17T06:50:03.854Z,4.55
2016-02-17T06:51:03.842Z,4.42
2016-02-17T06:52:03.876Z,4.5
2016-02-17T06:53:03.878Z,4.35
2016-02-17T06:54:03.896Z,4.45
2016-02-17T06:55:03.915Z,4.45
2016-02-17T06:56:03.903Z,4.45
2016-02-17T06:57:03.983Z,4.49
2016-02-17T06:58:03.938Z,4.35
2016-02-17T06:59:03.941Z,4.5
2016-02-17T07:00:03.975Z,4.45
2016-02-17T07:01:03.977Z,4.48
2016-02-17T07:02:04.012Z,4.44
2016-02-17T07:03:04.015Z,4.42
2016-02-17T07:04:04.048Z,4.48
2016-02-17T07:05:04.035Z,4.49
2016-02-17T07:06:04.038Z,4.5
2016-02-17T07:07:04.072Z,4.49
2016-02-17T07:08:04.107Z,4.48
2016-02-17T07:09:04.094Z,4.5
2016-02-17T07:10:04.127Z,4.45
2016-02-17T07:11:04.115Z,4.52
2016-02-17T07:12:04.149Z,4.53
2016-02-17T07:13:04.010Z,4.59
2016-02-17T07:14:04.185Z,4.52
2016-02-17T07:15:04.171Z,4.55
2016-02-17T07:16:04.207Z,4.59
2016-02-17T07:17:04.209Z,4.59
2016-02-17T07:18:04.226Z,4.59
2016-02-17T07:19:04.229Z,4.58
2016-02-17T07:20:04.248Z,4.59
2016-02-17T07:21:04.250Z,4.62
2016-02-17T07:22:04.285Z,4.59
2016-02-17T07:23:04.286Z,4.71
2016-02-17T07:24:04.306Z,4.58
2016-02-17T07:25:04.323Z,4.68
2016-02-17T07:26:04.326Z,4.58
2016-02-17T07:27:04.345Z,4.6
2016-02-17T07:28:04.363Z,4.53
2016-02-17T07:29:04.366Z,4.63
2016-02-17T07:30:04.416Z,4.58
2016-02-17T07:31:04.418Z,4.7
2016-02-17T07:32:04.422Z,4.68
2016-02-17T07:33:04.424Z,4.7
2016-02-17T07:34:04.458Z,4.75
2016-02-17T07:35:04.475Z,4.75
2016-02-17T07:36:04.463Z,4.74
2016-02-17T07:37:04.481Z,4.63
2016-02-17T07:38:04.515Z,4.67
2016-02-17T07:39:04.502Z,4.66
2016-02-17T07:40:04.521Z,4.71
2016-02-17T07:41:04.539Z,4.66
2016-02-17T07:42:04.557Z,4.86
2016-02-17T07:43:04.576Z,4.82
2016-02-17T07:44:04.594Z,4.86
2016-02-17T07:45:04.596Z,4.82
2016-02-17T07:46:04.614Z,4.8
2016-02-17T07:47:04.633Z,4.86
2016-02-17T07:48:04.667Z,4.89
2016-02-17T07:49:04.651Z,4.87
2016-02-17T07:50:04.667Z,4.89
2016-02-17T07:51:04.686Z,4.92
2016-02-17T07:52:04.640Z,4.82
2016-02-17T07:53:04.659Z,4.92
2016-02-17T07:54:04.647Z,4.96
2016-02-17T07:55:04.643Z,4.93
2016-02-17T07:56:04.656Z,4.96
2016-02-17T07:57:04.653Z,4.9
2016-02-17T07:58:04.680Z,4.89
2016-02-17T07:59:04.678Z,5.05
2016-02-17T08:00:04.694Z,5
2016-02-17T08:01:04.539Z,5.02
2016-02-17T08:02:04.744Z,5.07
2016-02-17T08:03:04.760Z,5.07
2016-02-17T08:04:04.746Z,5.14
2016-02-17T08:05:04.841Z,5.1
2016-02-17T08:06:04.780Z,5.11
2016-02-17T08:07:04.782Z,5.1
2016-02-17T08:08:04.800Z,5.15
2016-02-17T08:09:04.833Z,5.18
2016-02-17T08:10:04.819Z,5.25
2016-02-17T08:11:04.837Z,5.21
2016-02-17T08:12:04.856Z,5.23
2016-02-17T08:13:04.858Z,5.21
2016-02-17T08:14:04.875Z,5.25
2016-02-17T08:15:04.894Z,5.18
2016-02-17T08:16:05.021Z,5.25
2016-02-17T08:17:04.931Z,5.36
2016-02-17T08:18:05.043Z,5.33
2016-02-17T08:19:04.983Z,5.3
2016-02-17T08:20:04.969Z,5.26
2016-02-17T08:21:05.051Z,5.41
2016-02-17T08:22:05.007Z,5.47
2016-02-17T08:23:05.009Z,5.39
2016-02-17T08:24:05.013Z,5.44
2016-02-17T08:25:05.046Z,5.41
2016-02-17T08:26:05.080Z,5.47
2016-02-17T08:27:05.130Z,5.5
2016-02-17T08:28:05.196Z,5.5
2016-02-17T08:29:05.166Z,5.53
2016-02-17T08:30:05.185Z,5.53
2016-02-17T08:31:05.125Z,5.59
2016-02-17T08:32:05.127Z,5.66
2016-02-17T08:33:05.176Z,5.66
2016-02-17T08:34:05.696Z,5.66
2016-02-17T08:35:05.180Z,5.68
2016-02-17T08:36:05.182Z,5.73
2016-02-17T08:37:05.232Z,5.76
2016-02-17T08:38:05.219Z,5.83
2016-02-17T08:39:05.347Z,5.75
2016-02-17T08:40:05.240Z,5.87
2016-02-17T08:41:05.274Z,5.83
2016-02-17T08:42:05.276Z,5.9
2016-02-17T08:43:05.295Z,5.93
2016-02-17T08:44:05.314Z,5.98
2016-02-17T08:45:05.332Z,5.98
2016-02-17T08:46:05.335Z,6.02
2016-02-17T08:47:05.353Z,6.09
2016-02-17T08:48:05.372Z,6.09
2016-02-17T08:49:05.375Z,6.04
2016-02-17T08:50:05.408Z,6.11
2016-02-17T08:51:05.426Z,6.09
2016-02-17T08:52:05.428Z,6.12
2016-02-17T08:53:05.572Z,6.2
2016-02-17T08:54:05.449Z,6.31
2016-02-17T08:55:05.499Z,6.27
2016-02-17T08:56:05.486Z,6.28
2016-02-17T08:57:05.489Z,6.38
2016-02-17T08:58:05.508Z,6.35
2016-02-17T08:59:05.526Z,6.36
2016-02-17T09:00:05.544Z,6.45
2016-02-17T09:01:05.577Z,6.46
2016-02-17T09:02:05.565Z,6.51
2016-02-17T09:03:05.583Z,6.57
2016-02-17T09:04:05.602Z,6.59
2016-02-17T09:05:05.605Z,6.56
2016-02-17T09:06:05.623Z,6.54
2016-02-17T09:07:05.641Z,6.57
2016-02-17T09:08:05.659Z,6.56
2016-02-17T09:09:05.678Z,6.64
2016-02-17T09:10:05.696Z,6.56
2016-02-17T09:11:05.698Z,6.57
2016-02-17T09:12:05.717Z,6.6
2016-02-17T09:13:05.750Z,6.49
2016-02-17T09:14:05.738Z,6.62
2016-02-17T09:15:05.757Z,6.59
2016-02-17T09:16:05.790Z,6.62
2016-02-17T09:17:05.809Z,6.52
2016-02-17T09:18:05.811Z,6.59
2016-02-17T09:19:05.830Z,6.57
2016-02-17T09:20:05.941Z,6.64
2016-02-17T09:21:05.850Z,6.59
2016-02-17T09:22:05.869Z,6.6
2016-02-17T09:23:05.902Z,6.57
2016-02-17T09:24:05.906Z,6.59
2016-02-17T09:25:06.017Z,6.64
2016-02-17T09:26:05.927Z,6.59
2016-02-17T09:27:05.944Z,6.51
2016-02-17T09:28:06.057Z,6.64
2016-02-17T09:29:05.981Z,6.6
2016-02-17T09:30:05.985Z,6.57
2016-02-17T09:31:06.002Z,6.57
2016-02-17T09:32:06.052Z,6.66
2016-02-17T09:33:06.038Z,6.6
2016-02-17T09:34:06.041Z,6.63
2016-02-17T09:35:06.060Z,6.52
2016-02-17T09:36:06.093Z,6.59
2016-02-17T09:37:06.097Z,6.59
2016-02-17T09:38:06.100Z,6.59
2016-02-17T09:39:06.118Z,6.72
2016-02-17T09:40:06.152Z,6.6
2016-02-17T09:41:06.154Z,6.62
2016-02-17T09:42:06.173Z,6.62
2016-02-17T09:43:06.035Z,6.62
2016-02-17T09:44:06.193Z,6.69
2016-02-17T09:45:06.212Z,6.63
2016-02-17T09:46:06.245Z,6.67
2016-02-17T09:47:06.248Z,6.64
2016-02-17T09:48:06.267Z,6.62
2016-02-17T09:49:06.270Z,6.6
2016-02-17T09:50:06.303Z,6.59
2016-02-17T09:51:06.322Z,6.59
2016-02-17T09:52:06.309Z,6.69
2016-02-17T09:53:06.328Z,6.62
2016-02-17T09:54:06.361Z,6.63
2016-02-17T09:55:06.364Z,6.6
2016-02-17T09:56:06.382Z,6.66
2016-02-17T09:57:06.400Z,6.6
2016-02-17T09:58:06.419Z,6.62
2016-02-17T09:59:06.422Z,6.64
2016-02-17T10:00:06.487Z,6.7
2016-02-17T10:01:06.474Z,6.69
2016-02-17T10:02:06.461Z,6.72
2016-02-17T10:03:06.495Z,6.67
2016-02-17T10:04:06.513Z,6.69
2016-02-17T10:05:06.515Z,6.72
2016-02-17T10:06:06.534Z,6.66
2016-02-17T10:07:06.552Z,6.75
2016-02-17T10:08:06.587Z,6.72
2016-02-17T10:09:06.573Z,6.69
2016-02-17T10:10:06.592Z,6.74
2016-02-17T10:11:06.673Z,6.75
2016-02-17T10:12:06.643Z,6.7
2016-02-17T10:13:06.631Z,6.74
2016-02-17T10:14:06.665Z,6.67
2016-02-17T10:15:06.667Z,6.69
2016-02-17T10:16:06.702Z,6.77
2016-02-17T10:17:06.720Z,6.74
2016-02-17T10:18:06.739Z,6.77
2016-02-17T10:19:06.725Z,6.74
2016-02-17T10:20:06.744Z,6.79
2016-02-17T10:21:06.762Z,6.75
2016-02-17T10:22:06.795Z,6.81
2016-02-17T10:23:06.798Z,6.79
2016-02-17T10:24:06.817Z,6.85
2016-02-17T10:25:06.819Z,6.93
2016-02-17T10:26:06.853Z,6.88
2016-02-17T10:27:06.856Z,6.96
2016-02-17T10:28:06.875Z,6.92
2016-02-17T10:29:06.893Z,6.92
2016-02-17T10:30:06.911Z,6.93
2016-02-17T10:31:06.930Z,6.93
2016-02-17T10:32:07.089Z,7.05
2016-02-17T10:33:06.950Z,7.05
2016-02-17T10:34:06.969Z,7.05
2016-02-17T10:35:07.003Z,7.03
2016-02-17T10:36:07.005Z,7.07
2016-02-17T10:37:07.008Z,7.06
2016-02-17T10:38:07.027Z,7.05
2016-02-17T10:39:07.046Z,7.11
2016-02-17T10:40:07.064Z,7.17
2016-02-17T10:41:07.082Z,7.2
2016-02-17T10:42:07.100Z,7.15
2016-02-17T10:43:07.119Z,7.13
2016-02-17T10:44:07.203Z,7.18
2016-02-17T10:45:09.303Z,7.15
2016-02-17T10:46:07.150Z,7.17
2016-02-17T10:47:07.321Z,7.25
2016-02-17T10:48:07.113Z,7.32
2016-02-17T10:49:07.209Z,7.32
2016-02-17T10:50:07.227Z,7.33
2016-02-17T10:51:07.247Z,7.28
2016-02-17T10:52:07.249Z,7.31
2016-02-17T10:53:07.267Z,7.25
2016-02-17T10:54:07.286Z,7.28
2016-02-17T10:55:07.304Z,7.38
2016-02-17T10:56:07.322Z,7.38
2016-02-17T10:57:07.335Z,7.39
2016-02-17T10:58:07.369Z,7.43
2016-02-17T10:59:07.371Z,7.43
2016-02-17T11:00:07.390Z,7.48
2016-02-17T11:01:07.393Z,7.48
2016-02-17T11:02:07.410Z,7.51
2016-02-17T11:03:07.429Z,7.5
2016-02-17T11:04:07.463Z,7.47
2016-02-17T11:05:07.482Z,7.58
2016-02-17T11:06:07.484Z,7.6
2016-02-17T11:07:07.487Z,7.66
2016-02-17T11:08:07.521Z,7.66
2016-02-17T11:09:07.539Z,7.61
2016-02-17T11:10:07.558Z,7.6
2016-02-17T11:11:07.560Z,7.58
2016-02-17T11:12:07.579Z,7.69
2016-02-17T11:13:07.597Z,7.73
2016-02-17T11:14:07.615Z,7.67
2016-02-17T11:15:07.618Z,7.72
2016-02-17T11:16:07.637Z,7.67
2016-02-17T11:17:07.671Z,7.76
2016-02-17T11:18:07.673Z,7.69
2016-02-17T11:19:07.707Z,7.73
2016-02-17T11:20:07.709Z,7.67
2016-02-17T11:21:07.744Z,7.7
2016-02-17T11:22:07.747Z,7.72
2016-02-17T11:23:07.750Z,7.61
2016-02-17T11:24:07.767Z,7.7
2016-02-17T11:25:07.817Z,7.69
2016-02-17T11:26:07.804Z,7.7
2016-02-17T11:27:07.822Z,7.66
2016-02-17T11:28:07.856Z,7.69
2016-02-17T11:29:07.859Z,7.57
2016-02-17T11:30:07.862Z,7.67
2016-02-17T11:31:07.911Z,7.61
2016-02-17T11:32:07.899Z,7.61
2016-02-17T11:33:07.917Z,7.5
2016-02-17T11:34:07.936Z,7.53
2016-02-17T11:35:07.953Z,7.45
2016-02-17T11:36:07.972Z,7.48
2016-02-17T11:37:07.990Z,7.47
2016-02-17T11:38:07.993Z,7.48
2016-02-17T11:39:08.010Z,7.42
2016-02-17T11:40:08.029Z,7.35
2016-02-17T11:41:08.048Z,7.38
2016-02-17T11:42:08.066Z,7.33
2016-02-17T11:43:08.085Z,7.35
2016-02-17T11:44:08.102Z,7.32
2016-02-17T11:45:08.121Z,7.33
2016-02-17T11:46:08.140Z,7.33
2016-02-17T11:47:08.158Z,7.29
2016-02-17T11:48:08.318Z,7.36
2016-02-17T11:49:08.195Z,7.29
2016-02-17T11:50:08.197Z,7.29
2016-02-17T11:51:08.216Z,7.29
2016-02-17T11:52:08.249Z,7.32
2016-02-17T11:53:08.252Z,7.32
2016-02-17T11:54:08.271Z,7.31
2016-02-17T11:55:08.289Z,7.32
2016-02-17T11:56:08.292Z,7.18
2016-02-17T11:57:08.310Z,7.23
2016-02-17T11:58:08.328Z,7.17
2016-02-17T11:59:08.348Z,7.13
2016-02-17T12:00:08.381Z,7.18
2016-02-17T12:01:08.383Z,7.15
2016-02-17T12:02:08.402Z,7.17
2016-02-17T12:03:08.436Z,7.17
2016-02-17T12:04:08.439Z,7.15
2016-02-17T12:05:08.446Z,7.17
2016-02-17T12:06:08.480Z,7.2
2016-02-17T12:07:08.466Z,7.13
2016-02-17T12:08:08.500Z,7.13
2016-02-17T12:09:08.503Z,7.21
2016-02-17T12:10:08.522Z,7.15
2016-02-17T12:11:08.540Z,7.11
2016-02-17T12:12:08.558Z,7.17
2016-02-17T12:13:08.577Z,7.17
2016-02-17T12:14:08.596Z,7.18
2016-02-17T12:15:08.629Z,7.05
2016-02-17T12:16:08.632Z,7.18
2016-02-17T12:17:08.634Z,7.1
2016-02-17T12:18:08.653Z,7.24
2016-02-17T12:19:08.671Z,7.17
2016-02-17T12:20:08.704Z,7.17
2016-02-17T12:21:08.755Z,7.2
2016-02-17T12:22:08.726Z,7.18
2016-02-17T12:23:08.760Z,7.14
2016-02-17T12:24:08.747Z,7.17
2016-02-17T12:25:08.750Z,7.23
2016-02-17T12:26:08.799Z,7.18
2016-02-17T12:27:08.802Z,7.23
2016-02-17T12:28:08.820Z,7.23
2016-02-17T12:29:08.838Z,7.18
2016-02-17T12:30:08.873Z,7.24
2016-02-17T12:31:08.859Z,7.29
2016-02-17T12:32:08.878Z,7.25
2016-02-17T12:33:08.912Z,7.31
2016-02-17T12:34:08.961Z,7.24
2016-02-17T12:35:08.933Z,7.29
2016-02-17T12:36:08.951Z,7.17
2016-02-17T12:37:08.985Z,7.2
2016-02-17T12:38:08.988Z,7.17
2016-02-17T12:39:08.991Z,7.15
2016-02-17T12:40:09.025Z,7.15
2016-02-17T12:41:09.027Z,7.17
2016-02-17T12:42:09.046Z,7.14
2016-02-17T12:43:09.080Z,7.17
2016-02-17T12:44:09.082Z,7.15
2016-02-17T12:45:09.100Z,7.15
2016-02-17T12:46:09.135Z,7.17
2016-02-17T12:47:09.137Z,7.13
2016-02-17T12:48:09.155Z,7.14
2016-02-17T12:49:09.174Z,7.17
2016-02-17T12:50:09.192Z,7.2
2016-02-17T12:51:09.195Z,7.14
2016-02-17T12:52:09.229Z,7.13
2016-02-17T12:53:09.231Z,7.17
2016-02-17T12:54:09.234Z,7.15
2016-02-17T12:55:09.268Z,7.17
2016-02-17T12:56:09.317Z,7.14
2016-02-17T12:57:09.289Z,7.1
2016-02-17T12:58:09.307Z,7.21
2016-02-17T12:59:09.341Z,7.05
2016-02-17T13:00:09.345Z,7.07
2016-02-17T13:01:09.362Z,6.99
2016-02-17T13:02:09.395Z,7.03
2016-02-17T13:03:09.399Z,7.06
2016-02-17T13:04:09.417Z,7.03
2016-02-17T13:05:09.436Z,7
2016-02-17T13:06:09.438Z,7.05
2016-02-17T13:07:09.456Z,7.05
2016-02-17T13:08:09.491Z,7.03
2016-02-17T13:09:09.494Z,6.99
2016-02-17T13:10:09.496Z,6.89
2016-02-17T13:11:09.529Z,6.88
2016-02-17T13:12:09.547Z,6.95
2016-02-17T13:13:09.550Z,6.95
2016-02-17T13:14:09.585Z,6.93
2016-02-17T13:15:09.602Z,6.84
2016-02-17T13:16:09.605Z,6.87
2016-02-17T13:17:09.624Z,6.84
2016-02-17T13:18:09.689Z,6.84
2016-02-17T13:19:09.646Z,6.85
2016-02-17T13:20:09.663Z,6.87
2016-02-17T13:21:09.696Z,6.84
2016-02-17T13:22:09.700Z,6.93